Normal, IL

3:23 AM CST on January 20, 2017 (GMT -0600)
Across from IWU | | Change Station
Active Advisory: Dense Fog Advisory

Elev 810 ft 40.49 °N, 88.99 °W | Updated 6 minutes ago

Overcast
Overcast
40.5 °F
Feels Like 40 °F
N
0.0
Wind Variable Wind from ENE
Gusts 0.0 mph

Today
High -- | Low -- °F
--% Chance of Precip.
Yesterday
High -- | Low -- °F
Precip. -- in
Pressure 29.68 in
Visibility 0.2 miles
Clouds Overcast 200 ft
Windchill 40 °F
Dew Point 40 °F
Humidity 98%
Rainfall 0.00 in
Snow Depth Not available.
7:14 AM 4:59 PM
Last Quarter, 46% visible
METAR KBMI 200856Z AUTO 04004KT 1/4SM R20/2000FT FG OVC002 04/04 A2960 RMK AO2 RAB08E43 SLP050 P0000 60000 T00390039 58006
Pressure 29.68 in
Visibility 0.2 miles
Clouds Overcast 200 ft
Windchill 40 °F
Dew Point 40 °F
Humidity 98%
Rainfall 0.00 in
Snow Depth Not available.
7:14 AM 4:59 PM
Last Quarter, 46% visible
METAR KBMI 200856Z AUTO 04004KT 1/4SM R20/2000FT FG OVC002 04/04 A2960 RMK AO2 RAB08E43 SLP050 P0000 60000 T00390039 58006

Get Your Daily Forecast Email!

Thanks for signing up!

Be on the lookout for a verification email in your inbox.

You'll start receiving the daily forecast at 8 AM.

×

10-Day Weather Forecast

Almanac

Astronomy

Jan. 20, 2017 Rise Set
Actual Time
Civil Twilight
Nautical Twilight
Astronomical Twilight
Moon
Length of Visible Light
Length of Day
Tomorrow will be .
, % of the Moon is Illuminated

Today's Extremes

State Highs State Lows

Community

WunderPhotos

Upload Photos

1,962,540 photos uploaded!

WunderBlog® & News

Nearby

Air Quality

  Air Quality AQ Index Pollutant
Not available.

Snow Depth

Station Depth Elevation

Earthquake Activity

City Distance Mag. Time & Date
Minimum magnitude displayed is 2.5.

Coastal Water Temperatures

Place Temperature

Stations

Nearby Weather Stations

Station Location Temp. Windchill Dew Point Humidity Wind Precip. Elev Updated Type
                   

Watches & Warnings

Dense Fog Advisory
Issued: 10:40 PM CST Jan. 19, 2017 – National Weather Service

... Dense fog advisory remains in effect until 9 am CST Friday...

* visibility... localized areas will see visibility down to a
quarter mile late this evening... with the dense fog becoming
more widespread after midnight. The fog should begin to lift
around mid morning Friday.

* Impacts... drivers should be prepared for rapidly changing
visibility. Be alert for slow moving traffic... especially
Friday morning during the commute to work or school.

Precautionary/preparedness actions...

A dense fog advisory means visibilities will frequently be
reduced to less than one quarter mile. If driving... slow down...
use your headlights... and leave plenty of distance ahead of you.